createdAt,value
2023-03-03T00:01:55.371Z,31.60
2023-03-03T00:04:23.331Z,32.90
2023-03-03T00:06:52.204Z,31.50
2023-03-03T00:09:20.131Z,38.90
2023-03-03T00:11:50.676Z,34.40
2023-03-03T00:14:24.480Z,29.50
2023-03-03T00:16:52.794Z,35.20
2023-03-03T00:19:21.147Z,29.70
2023-03-03T00:21:50.052Z,33.00
2023-03-03T00:24:21.144Z,29.50
2023-03-03T00:26:56.629Z,29.10
2023-03-03T00:29:27.490Z,29.20
2023-03-03T00:31:55.948Z,31.10
2023-03-03T00:34:28.213Z,30.90
2023-03-03T00:36:57.689Z,27.30
2023-03-03T00:39:38.564Z,29.80
2023-03-03T00:42:14.289Z,35.90
2023-03-03T00:44:43.107Z,31.30
2023-03-03T00:47:31.795Z,31.90
2023-03-03T00:50:07.189Z,32.50
2023-03-03T00:52:41.689Z,31.50
2023-03-03T00:55:10.834Z,30.80
2023-03-03T00:57:41.277Z,33.10
2023-03-03T01:00:10.745Z,33.60
2023-03-03T01:02:39.611Z,31.90
2023-03-03T01:05:08.235Z,30.50
2023-03-03T01:07:36.347Z,30.20
2023-03-03T01:10:04.910Z,28.10
2023-03-03T01:15:01.414Z,30.80
2023-03-03T01:17:34.395Z,28.20
2023-03-03T01:20:02.933Z,28.10
2023-03-03T01:22:31.141Z,27.70
2023-03-03T01:25:00.324Z,28.70
2023-03-03T01:29:57.636Z,29.40
2023-03-03T01:32:25.912Z,28.40
2023-03-03T01:34:57.575Z,34.20
2023-03-03T01:37:26.665Z,35.90
2023-03-03T01:39:54.847Z,33.00
2023-03-03T01:45:15.134Z,33.60
2023-03-03T01:47:47.273Z,31.90
2023-03-03T01:50:21.118Z,36.70
2023-03-03T01:52:54.778Z,37.40
2023-03-03T01:55:25.148Z,36.90
2023-03-03T01:57:59.804Z,39.60
2023-03-03T02:00:28.520Z,36.50
2023-03-03T02:02:57.010Z,40.20
2023-03-03T02:05:25.324Z,40.80
2023-03-03T02:07:53.243Z,42.30
2023-03-03T02:10:22.472Z,43.30
2023-03-03T02:12:52.900Z,33.30
2023-03-03T02:15:27.567Z,37.80
2023-03-03T02:17:56.905Z,37.40
2023-03-03T02:20:24.960Z,42.00
2023-03-03T02:23:21.221Z,37.20
2023-03-03T02:26:07.438Z,35.80
2023-03-03T02:28:36.955Z,37.70
2023-03-03T02:31:11.005Z,37.10
2023-03-03T02:33:41.054Z,35.30
2023-03-03T02:36:16.469Z,36.90
2023-03-03T02:38:52.233Z,35.60
2023-03-03T02:41:23.385Z,39.00
2023-03-03T02:43:53.798Z,33.30
2023-03-03T02:46:22.298Z,34.20
2023-03-03T02:48:50.551Z,34.20
2023-03-03T02:51:18.749Z,34.70
2023-03-03T02:53:46.898Z,36.50
2023-03-03T02:56:15.014Z,44.10
2023-03-03T02:58:43.416Z,38.80
2023-03-03T03:01:11.934Z,32.50
2023-03-03T03:03:41.500Z,36.90
2023-03-03T03:06:10.884Z,37.60
2023-03-03T03:08:41.013Z,38.00
2023-03-03T03:11:09.207Z,33.80
2023-03-03T03:13:38.185Z,33.70
2023-03-03T03:16:08.256Z,34.20
2023-03-03T03:18:36.668Z,38.60
2023-03-03T03:21:09.547Z,36.10
2023-03-03T03:23:39.981Z,34.00
2023-03-03T03:26:10.198Z,36.70
2023-03-03T03:28:39.086Z,36.10
2023-03-03T03:31:08.307Z,36.20
2023-03-03T03:33:36.853Z,39.70
2023-03-03T03:36:06.492Z,34.20
2023-03-03T03:38:36.788Z,38.70
2023-03-03T03:41:08.862Z,38.10
2023-03-03T03:43:37.073Z,40.60
2023-03-03T03:46:05.321Z,53.30
2023-03-03T03:48:34.420Z,68.20
2023-03-03T03:51:03.107Z,71.10
2023-03-03T03:53:32.885Z,81.70
2023-03-03T03:56:01.456Z,87.00
2023-03-03T03:58:30.656Z,80.50
2023-03-03T04:01:05.869Z,85.20
2023-03-03T04:03:35.713Z,96.80
2023-03-03T04:06:05.757Z,115.10
2023-03-03T04:08:35.305Z,114.70
2023-03-03T04:11:03.926Z,101.40
2023-03-03T04:16:05.398Z,62.20
2023-03-03T04:18:35.245Z,51.00
2023-03-03T04:21:06.225Z,43.70
2023-03-03T04:23:34.902Z,44.10
2023-03-03T04:26:03.346Z,42.20
2023-03-03T04:28:31.787Z,42.10
2023-03-03T04:33:29.068Z,37.00
2023-03-03T04:35:57.785Z,42.30
2023-03-03T04:38:26.349Z,39.10
2023-03-03T04:40:56.773Z,36.30
2023-03-03T04:43:25.529Z,38.40
2023-03-03T04:45:55.126Z,41.20
2023-03-03T04:48:24.793Z,39.10
2023-03-03T04:50:53.277Z,39.80
2023-03-03T04:53:21.627Z,37.90
2023-03-03T04:55:52.164Z,33.40
2023-03-03T04:58:21.202Z,36.10
2023-03-03T05:00:56.639Z,35.30
2023-03-03T05:03:27.240Z,35.50
2023-03-03T05:05:55.635Z,36.20
2023-03-03T05:08:23.966Z,38.90
2023-03-03T05:10:53.537Z,41.20
2023-03-03T05:13:27.344Z,42.80
2023-03-03T05:15:56.257Z,40.90
2023-03-03T05:18:24.665Z,31.80
2023-03-03T05:20:52.800Z,30.50
2023-03-03T05:23:21.241Z,33.70
2023-03-03T05:25:50.014Z,39.50
2023-03-03T05:28:19.220Z,37.40
2023-03-03T05:30:47.410Z,38.00
2023-03-03T05:33:16.819Z,37.80
2023-03-03T05:35:45.885Z,38.80
2023-03-03T05:38:17.544Z,37.90
2023-03-03T05:40:45.907Z,47.10
2023-03-03T05:43:14.168Z,46.30
2023-03-03T05:45:42.204Z,45.00
2023-03-03T05:48:10.551Z,41.80
2023-03-03T05:50:39.746Z,44.20
2023-03-03T05:53:08.136Z,36.70
2023-03-03T05:55:37.290Z,40.00
2023-03-03T05:58:05.396Z,38.20
2023-03-03T06:00:34.728Z,39.10
2023-03-03T06:03:02.892Z,37.50
2023-03-03T06:05:32.046Z,38.90
2023-03-03T06:08:01.066Z,36.20
2023-03-03T06:10:29.414Z,37.30
2023-03-03T06:12:58.646Z,37.80
2023-03-03T06:17:56.579Z,40.00
2023-03-03T06:20:25.416Z,39.00
2023-03-03T06:22:53.483Z,40.50
2023-03-03T06:25:21.459Z,38.10
2023-03-03T06:27:49.491Z,41.00
2023-03-03T06:30:19.029Z,40.30
2023-03-03T06:32:47.537Z,37.90
2023-03-03T06:35:15.684Z,40.80
2023-03-03T06:37:44.786Z,42.60
2023-03-03T06:40:13.769Z,42.20
2023-03-03T06:42:42.573Z,38.80
2023-03-03T06:45:11.449Z,41.30
2023-03-03T06:47:39.573Z,47.30
2023-03-03T06:50:11.334Z,40.50
2023-03-03T06:52:39.226Z,39.20
2023-03-03T06:55:17.726Z,37.20
2023-03-03T06:57:45.835Z,41.80
2023-03-03T07:00:30.791Z,30.90
2023-03-03T07:03:12.533Z,35.90
2023-03-03T07:05:45.085Z,38.20
2023-03-03T07:08:16.514Z,35.20
2023-03-03T07:10:45.152Z,42.00
2023-03-03T07:13:27.420Z,40.40
2023-03-03T07:15:56.875Z,45.60
2023-03-03T07:18:45.674Z,40.60
2023-03-03T07:21:14.075Z,40.70
2023-03-03T07:23:43.049Z,41.70
2023-03-03T07:26:34.574Z,39.70
2023-03-03T07:29:26.536Z,36.30
2023-03-03T07:31:56.558Z,34.00
2023-03-03T07:34:31.475Z,35.80
2023-03-03T07:37:35.591Z,37.00
2023-03-03T07:40:24.393Z,36.00
2023-03-03T07:42:52.402Z,37.30
2023-03-03T07:45:34.919Z,39.70
2023-03-03T07:48:26.539Z,38.00
2023-03-03T07:50:54.886Z,38.50
2023-03-03T07:53:30.263Z,39.20
2023-03-03T07:55:58.473Z,37.80
2023-03-03T07:58:40.089Z,36.40
2023-03-03T08:01:40.428Z,44.10
2023-03-03T08:04:14.067Z,46.00
2023-03-03T08:07:00.624Z,44.10
2023-03-03T08:09:44.198Z,43.90
2023-03-03T08:12:28.380Z,48.10
2023-03-03T08:14:57.593Z,38.60
2023-03-03T08:17:36.963Z,44.00
2023-03-03T08:20:53.361Z,43.30
2023-03-03T08:23:21.695Z,44.20
2023-03-03T08:25:50.748Z,40.20
2023-03-03T08:28:19.633Z,42.00
2023-03-03T08:30:48.559Z,34.90
2023-03-03T08:35:45.725Z,39.60
2023-03-03T08:38:17.132Z,32.40
2023-03-03T08:40:45.514Z,38.10
2023-03-03T08:43:21.610Z,37.10
2023-03-03T08:45:50.206Z,31.90
2023-03-03T08:48:18.823Z,34.40
2023-03-03T08:50:47.943Z,34.70
2023-03-03T08:53:16.809Z,29.10
2023-03-03T08:55:45.490Z,34.30
2023-03-03T08:58:15.893Z,34.70
2023-03-03T09:00:51.237Z,31.40
2023-03-03T09:03:39.943Z,28.20
2023-03-03T09:06:10.047Z,38.70
2023-03-03T09:08:38.425Z,33.70
2023-03-03T09:11:17.122Z,31.60
2023-03-03T09:13:53.392Z,28.80
2023-03-03T09:16:22.505Z,27.90
2023-03-03T09:18:54.539Z,35.70
2023-03-03T09:21:27.005Z,29.30
2023-03-03T09:24:01.150Z,35.70
2023-03-03T09:26:39.366Z,35.70
2023-03-03T09:29:10.106Z,38.20
2023-03-03T09:31:59.108Z,30.40
2023-03-03T09:34:36.977Z,35.70
2023-03-03T09:37:36.681Z,30.60
2023-03-03T09:40:26.328Z,32.90
2023-03-03T09:43:10.233Z,38.20
2023-03-03T09:45:53.759Z,45.00
2023-03-03T09:48:53.071Z,38.80
2023-03-03T09:51:41.254Z,29.40
2023-03-03T09:54:16.284Z,27.20
2023-03-03T09:57:09.226Z,34.30
2023-03-03T10:00:00.430Z,34.30
2023-03-03T10:03:06.922Z,27.70
2023-03-03T10:05:54.040Z,23.50
2023-03-03T10:08:37.779Z,28.50
2023-03-03T10:11:10.923Z,27.50
2023-03-03T10:13:59.317Z,32.10
2023-03-03T10:16:56.585Z,26.10
2023-03-03T10:19:34.322Z,30.40
2023-03-03T10:22:29.611Z,29.20
2023-03-03T10:25:05.137Z,34.40
2023-03-03T10:28:02.844Z,26.30
2023-03-03T10:30:48.585Z,30.10
2023-03-03T10:33:35.680Z,31.90
2023-03-03T10:36:22.416Z,32.40
2023-03-03T10:39:19.594Z,32.60
2023-03-03T10:42:29.323Z,31.70
2023-03-03T10:45:13.045Z,29.10
2023-03-03T10:47:50.182Z,29.80
2023-03-03T10:50:27.150Z,32.90
2023-03-03T10:53:23.489Z,32.20
2023-03-03T10:56:04.482Z,32.70
2023-03-03T10:58:54.486Z,38.20
2023-03-03T11:01:45.537Z,33.40
2023-03-03T11:04:24.376Z,35.90
2023-03-03T11:07:13.828Z,32.20
2023-03-03T11:10:01.861Z,28.60
2023-03-03T11:12:39.879Z,30.20
2023-03-03T11:15:35.301Z,34.80
2023-03-03T11:18:14.018Z,29.90
2023-03-03T11:20:46.802Z,30.30
2023-03-03T11:23:53.683Z,44.90
2023-03-03T11:26:33.576Z,31.50
2023-03-03T11:29:40.729Z,32.80
2023-03-03T11:32:41.879Z,26.60
2023-03-03T11:35:19.855Z,29.80
2023-03-03T11:38:03.696Z,26.00
2023-03-03T11:40:50.542Z,29.10
2023-03-03T11:43:37.372Z,24.80
2023-03-03T11:46:20.716Z,25.40
2023-03-03T11:49:14.458Z,25.70
2023-03-03T11:52:12.651Z,22.10
2023-03-03T11:54:51.843Z,26.80
2023-03-03T11:57:30.055Z,27.50
2023-03-03T12:00:03.441Z,31.10
2023-03-03T12:02:57.905Z,24.60
2023-03-03T12:05:44.520Z,32.10
2023-03-03T12:08:12.737Z,27.20
2023-03-03T12:11:08.412Z,30.60
2023-03-03T12:14:17.171Z,37.10
2023-03-03T12:17:33.362Z,25.20
2023-03-03T12:20:07.395Z,28.00
2023-03-03T12:22:41.750Z,25.90
2023-03-03T12:25:14.967Z,28.50
2023-03-03T12:27:43.260Z,25.90
2023-03-03T12:30:26.826Z,24.70
2023-03-03T12:36:12.804Z,34.20
2023-03-03T12:39:13.465Z,28.80
2023-03-03T12:42:10.808Z,34.00
2023-03-03T12:44:48.913Z,32.60
2023-03-03T12:47:33.551Z,31.10
2023-03-03T12:50:08.140Z,34.60
2023-03-03T12:52:48.013Z,34.10
2023-03-03T12:55:44.615Z,32.00
2023-03-03T12:58:37.240Z,31.50
2023-03-03T13:01:28.261Z,36.90
2023-03-03T13:04:11.777Z,30.00
2023-03-03T13:06:55.220Z,34.90
2023-03-03T13:10:03.791Z,32.80
2023-03-03T13:12:47.297Z,31.00
2023-03-03T13:15:31.751Z,29.60
2023-03-03T13:18:00.498Z,35.60
2023-03-03T13:20:59.388Z,34.20
2023-03-03T13:26:27.725Z,31.40
2023-03-03T13:29:20.217Z,33.10
2023-03-03T13:31:56.455Z,32.10
2023-03-03T13:34:30.860Z,31.70
2023-03-03T13:37:14.460Z,41.20
2023-03-03T13:40:00.507Z,30.30
2023-03-03T13:42:32.158Z,41.80
2023-03-03T13:45:00.593Z,39.70
2023-03-03T13:47:41.101Z,34.90
2023-03-03T13:50:38.570Z,33.00
2023-03-03T13:53:18.777Z,29.30
2023-03-03T13:56:23.856Z,28.70
2023-03-03T13:59:15.504Z,31.30
2023-03-03T14:02:01.798Z,30.80
2023-03-03T14:04:52.056Z,38.80
2023-03-03T14:08:07.513Z,31.70
2023-03-03T14:11:05.305Z,40.70
2023-03-03T14:13:53.553Z,32.60
2023-03-03T14:16:32.984Z,35.50
2023-03-03T14:19:09.919Z,35.40
2023-03-03T14:22:00.293Z,38.60
2023-03-03T14:24:30.389Z,30.90
2023-03-03T14:27:01.809Z,28.00
2023-03-03T14:29:32.514Z,32.30
2023-03-03T14:32:01.775Z,31.20
2023-03-03T14:34:39.496Z,31.30
2023-03-03T14:37:29.708Z,38.20
2023-03-03T14:40:07.189Z,32.60
2023-03-03T14:42:48.381Z,31.80
2023-03-03T14:45:37.444Z,28.00
2023-03-03T14:48:22.821Z,35.50
2023-03-03T14:50:56.668Z,28.00
2023-03-03T14:53:34.437Z,33.20
2023-03-03T14:56:16.203Z,28.70
2023-03-03T14:58:44.624Z,29.40
2023-03-03T15:03:49.303Z,47.50
2023-03-03T15:06:42.086Z,28.50
2023-03-03T15:09:30.036Z,33.70
2023-03-03T15:11:59.638Z,31.00
2023-03-03T15:14:32.524Z,28.90
2023-03-03T15:17:19.512Z,28.00
2023-03-03T15:20:17.100Z,28.10
2023-03-03T15:23:14.621Z,29.70
2023-03-03T15:25:54.599Z,31.30
2023-03-03T15:28:29.848Z,29.20
2023-03-03T15:31:18.032Z,30.40
2023-03-03T15:34:23.149Z,28.20
2023-03-03T15:37:16.411Z,37.90
2023-03-03T15:40:21.832Z,26.20
2023-03-03T15:43:02.480Z,30.20
2023-03-03T15:45:47.992Z,30.90
2023-03-03T15:48:19.207Z,24.50
2023-03-03T15:51:16.247Z,26.70
2023-03-03T15:53:53.260Z,34.40
2023-03-03T15:56:49.774Z,24.70
2023-03-03T15:59:36.093Z,27.20
2023-03-03T16:02:46.615Z,24.70
2023-03-03T16:05:17.140Z,24.20
2023-03-03T16:08:13.893Z,26.20
2023-03-03T16:10:57.435Z,27.30
2023-03-03T16:13:45.628Z,30.10
2023-03-03T16:16:43.723Z,26.30
2023-03-03T16:19:22.175Z,26.30
2023-03-03T16:21:52.857Z,30.00
2023-03-03T16:24:29.082Z,34.50
2023-03-03T16:27:06.324Z,27.00
2023-03-03T16:29:57.900Z,31.80
2023-03-03T16:32:36.424Z,30.60
2023-03-03T16:35:24.378Z,30.10
2023-03-03T16:37:57.038Z,36.40
2023-03-03T16:40:45.617Z,33.60
2023-03-03T16:44:00.516Z,30.50
2023-03-03T16:46:35.947Z,37.50
2023-03-03T16:49:58.777Z,28.70
2023-03-03T16:52:33.190Z,26.10
2023-03-03T16:55:27.713Z,32.40
2023-03-03T16:58:04.960Z,31.90
2023-03-03T17:01:12.959Z,31.40
2023-03-03T17:03:47.288Z,31.60
2023-03-03T17:06:33.885Z,27.10
2023-03-03T17:09:32.055Z,31.50
2023-03-03T17:12:04.038Z,28.20
2023-03-03T17:14:39.159Z,32.60
2023-03-03T17:17:40.514Z,28.60
2023-03-03T17:20:26.875Z,28.10
2023-03-03T17:23:08.147Z,28.70
2023-03-03T17:26:13.244Z,24.80
2023-03-03T17:28:51.758Z,32.50
2023-03-03T17:31:38.106Z,28.80
2023-03-03T17:34:19.199Z,31.70
2023-03-03T17:37:08.838Z,25.80
2023-03-03T17:39:55.608Z,32.30
2023-03-03T17:43:05.004Z,29.70
2023-03-03T17:45:36.425Z,23.50
2023-03-03T17:48:42.929Z,29.10
2023-03-03T17:51:43.061Z,24.00
2023-03-03T17:54:20.456Z,25.30
2023-03-03T17:57:02.691Z,27.80
2023-03-03T17:59:41.522Z,26.70
2023-03-03T18:02:17.709Z,25.60
2023-03-03T18:05:14.115Z,22.80
2023-03-03T18:08:06.949Z,23.10
2023-03-03T18:11:08.368Z,24.30
2023-03-03T18:13:41.719Z,24.70
2023-03-03T18:16:24.567Z,25.00
2023-03-03T18:19:15.752Z,26.70
2023-03-03T18:21:53.339Z,27.90
2023-03-03T18:24:30.633Z,26.80
2023-03-03T18:27:33.725Z,23.30
2023-03-03T18:30:07.836Z,28.90
2023-03-03T18:33:03.466Z,27.30
2023-03-03T18:35:45.586Z,27.00
2023-03-03T18:38:16.525Z,30.80
2023-03-03T18:40:57.096Z,32.30
2023-03-03T18:43:43.572Z,27.70
2023-03-03T18:46:32.821Z,25.30
2023-03-03T18:49:02.253Z,29.60
2023-03-03T18:51:39.541Z,26.50
2023-03-03T18:54:17.319Z,23.90
2023-03-03T18:56:56.026Z,28.80
2023-03-03T18:59:35.429Z,24.20
2023-03-03T19:02:29.841Z,21.80
2023-03-03T19:05:23.489Z,26.20
2023-03-03T19:08:16.776Z,25.50
2023-03-03T19:10:55.586Z,28.80
2023-03-03T19:13:32.883Z,28.40
2023-03-03T19:16:06.400Z,29.50
2023-03-03T19:18:55.250Z,25.40
2023-03-03T19:21:33.999Z,26.70
2023-03-03T19:24:36.452Z,25.80
2023-03-03T19:27:49.275Z,26.40
2023-03-03T19:30:47.361Z,24.10
2023-03-03T19:33:23.180Z,26.50
2023-03-03T19:36:25.574Z,27.60
2023-03-03T19:39:25.159Z,23.40
2023-03-03T19:42:06.165Z,29.20
2023-03-03T19:45:12.235Z,29.90
2023-03-03T19:47:54.702Z,28.80
2023-03-03T19:50:33.133Z,27.40
2023-03-03T19:53:20.012Z,25.70
2023-03-03T19:56:09.826Z,29.90
2023-03-03T19:58:56.309Z,26.30
2023-03-03T20:01:24.779Z,29.00
2023-03-03T20:04:12.052Z,28.80
2023-03-03T20:06:54.867Z,26.00
2023-03-03T20:09:41.861Z,27.70
2023-03-03T20:12:32.697Z,26.80
2023-03-03T20:15:15.280Z,31.40
2023-03-03T20:18:01.901Z,26.30
2023-03-03T20:20:49.990Z,28.10
2023-03-03T20:23:36.805Z,28.10
2023-03-03T20:26:27.205Z,27.60
2023-03-03T20:29:15.914Z,28.40
2023-03-03T20:31:57.395Z,26.60
2023-03-03T20:34:46.876Z,27.90
2023-03-03T20:37:20.796Z,27.40
2023-03-03T20:40:13.205Z,25.70
2023-03-03T20:42:45.545Z,26.70
2023-03-03T20:45:42.099Z,27.50
2023-03-03T20:48:13.853Z,26.90
2023-03-03T20:50:55.573Z,30.80
2023-03-03T20:53:26.859Z,28.90
2023-03-03T20:56:03.472Z,26.80
2023-03-03T20:58:37.270Z,29.00
2023-03-03T21:01:16.407Z,27.00
2023-03-03T21:03:45.391Z,32.00
2023-03-03T21:06:18.312Z,30.40
2023-03-03T21:08:49.642Z,28.80
2023-03-03T21:11:22.624Z,29.40
2023-03-03T21:13:52.170Z,27.80
2023-03-03T21:16:20.215Z,26.10
2023-03-03T21:19:01.607Z,27.00
2023-03-03T21:21:38.167Z,27.60
2023-03-03T21:24:07.278Z,30.20
2023-03-03T21:26:48.860Z,29.80
2023-03-03T21:29:20.953Z,31.20
2023-03-03T21:31:59.451Z,30.40
2023-03-03T21:34:32.650Z,31.10
2023-03-03T21:37:07.100Z,31.90
2023-03-03T21:39:39.556Z,34.40
2023-03-03T21:42:10.565Z,28.90
2023-03-03T21:44:44.518Z,32.70
2023-03-03T21:47:15.134Z,30.80
2023-03-03T21:50:00.403Z,29.50
2023-03-03T21:52:29.164Z,30.20
2023-03-03T21:54:57.382Z,31.70
2023-03-03T21:57:26.751Z,33.50
2023-03-03T21:59:55.014Z,31.60
2023-03-03T22:02:22.947Z,33.20
2023-03-03T22:04:51.137Z,31.20
2023-03-03T22:07:19.232Z,33.60
2023-03-03T22:09:47.674Z,34.60
2023-03-03T22:12:16.107Z,32.30
2023-03-03T22:14:44.318Z,32.50
2023-03-03T22:17:12.330Z,34.10
2023-03-03T22:19:40.372Z,35.10
2023-03-03T22:27:07.695Z,38.80
2023-03-03T22:29:37.403Z,33.90
2023-03-03T22:32:05.686Z,35.10
2023-03-03T22:34:33.968Z,34.50
2023-03-03T22:37:02.028Z,32.20
2023-03-03T22:39:30.426Z,33.10
2023-03-03T22:41:58.586Z,37.10
2023-03-03T22:44:26.764Z,37.70
2023-03-03T22:46:54.876Z,36.70
2023-03-03T22:49:23.018Z,34.30
2023-03-03T22:51:51.013Z,34.30
2023-03-03T22:54:20.909Z,33.50
2023-03-03T22:56:48.951Z,36.60
2023-03-03T22:59:17.136Z,31.30
2023-03-03T23:01:47.982Z,34.00
2023-03-03T23:04:16.909Z,34.20
2023-03-03T23:06:47.843Z,36.90
2023-03-03T23:09:20.484Z,33.80
2023-03-03T23:11:49.786Z,35.20
2023-03-03T23:14:17.749Z,35.50
2023-03-03T23:16:47.336Z,40.00
2023-03-03T23:19:15.993Z,35.90
2023-03-03T23:21:44.308Z,40.40
2023-03-03T23:24:12.281Z,43.00
2023-03-03T23:26:40.349Z,38.90
2023-03-03T23:31:41.312Z,35.30
2023-03-03T23:34:09.223Z,42.80
2023-03-03T23:36:37.353Z,35.70
2023-03-03T23:39:05.774Z,39.20
2023-03-03T23:41:34.393Z,40.90
2023-03-03T23:44:02.482Z,47.30
2023-03-03T23:46:34.261Z,38.70
2023-03-03T23:49:02.435Z,40.60
2023-03-03T23:54:01.632Z,35.70
2023-03-03T23:56:29.809Z,37.90
2023-03-03T23:58:57.980Z,40.30
